createdAt,value
2019-01-04T00:01:30.781Z,99.00
2019-01-04T00:03:59.381Z,99.00
2019-01-04T00:06:27.714Z,99.10
2019-01-04T00:08:55.714Z,99.20
2019-01-04T00:11:23.611Z,99.40
2019-01-04T00:13:51.494Z,99.50
2019-01-04T00:16:19.495Z,99.60
2019-01-04T00:18:48.184Z,99.70
2019-01-04T00:21:16.546Z,99.80
2019-01-04T00:23:44.421Z,99.80
2019-01-04T00:26:12.408Z,99.80
2019-01-04T00:28:40.321Z,99.80
2019-01-04T00:31:08.224Z,99.80
2019-01-04T00:33:36.084Z,99.80
2019-01-04T00:36:04.741Z,99.80
2019-01-04T00:38:32.617Z,99.90
2019-01-04T00:41:00.590Z,99.80
2019-01-04T00:43:28.456Z,99.80
2019-01-04T00:45:56.354Z,99.90
2019-01-04T00:48:24.229Z,99.90
2019-01-04T00:50:52.209Z,99.90
2019-01-04T00:53:20.186Z,99.90
2019-01-04T00:55:55.381Z,99.90
2019-01-04T00:58:31.085Z,99.90
2019-01-04T01:01:21.104Z,99.90
2019-01-04T01:04:08.309Z,99.80
2019-01-04T01:06:46.357Z,99.90
2019-01-04T01:09:29.108Z,99.80
2019-01-04T01:12:25.577Z,99.70
2019-01-04T01:15:15.970Z,99.70
2019-01-04T01:18:18.386Z,99.70
2019-01-04T01:21:20.498Z,99.70
2019-01-04T01:24:06.717Z,99.50
2019-01-04T01:26:51.919Z,99.20
2019-01-04T01:29:37.956Z,99.20
2019-01-04T01:32:24.209Z,98.70
2019-01-04T01:35:10.028Z,98.60
2019-01-04T01:37:56.120Z,98.70
2019-01-04T01:40:42.069Z,99.40
2019-01-04T01:43:22.308Z,99.40
2019-01-04T01:46:08.046Z,99.70
2019-01-04T01:48:43.037Z,99.80
2019-01-04T01:51:24.495Z,99.90
2019-01-04T01:53:52.979Z,99.90
2019-01-04T01:56:20.911Z,99.90
2019-01-04T01:58:48.823Z,99.90
2019-01-04T02:01:16.697Z,99.90
2019-01-04T02:03:45.204Z,99.90
2019-01-04T02:06:13.083Z,99.90
2019-01-04T02:08:41.096Z,99.90
2019-01-04T02:11:08.972Z,99.90
2019-01-04T02:13:37.203Z,99.80
2019-01-04T02:16:05.070Z,99.80
2019-01-04T02:18:32.964Z,99.90
2019-01-04T02:21:00.908Z,99.90
2019-01-04T02:23:29.146Z,99.90
2019-01-04T02:25:57.168Z,99.90
2019-01-04T02:28:25.137Z,99.70
2019-01-04T02:30:53.308Z,99.60
2019-01-04T02:33:21.231Z,99.50
2019-01-04T02:35:49.107Z,99.50
2019-01-04T02:38:17.004Z,99.60
2019-01-04T02:40:44.872Z,99.50
2019-01-04T02:43:12.789Z,99.30
2019-01-04T02:45:40.932Z,99.30
2019-01-04T02:48:09.126Z,99.10
2019-01-04T02:50:37.129Z,99.50
2019-01-04T02:53:05.303Z,99.90
2019-01-04T02:55:33.209Z,99.80
2019-01-04T02:58:01.198Z,99.90
2019-01-04T03:00:29.072Z,99.90
2019-01-04T03:02:56.963Z,99.90
2019-01-04T03:05:24.842Z,99.90
2019-01-04T03:07:52.732Z,99.90
2019-01-04T03:10:20.644Z,99.90
2019-01-04T03:12:48.697Z,99.90
2019-01-04T03:15:16.565Z,99.90
2019-01-04T03:17:44.460Z,99.90
2019-01-04T03:20:12.422Z,99.90
2019-01-04T03:22:40.669Z,99.90
2019-01-04T03:25:08.590Z,99.90
2019-01-04T03:27:36.483Z,99.90
2019-01-04T03:30:04.487Z,99.90
2019-01-04T03:32:32.407Z,99.90
2019-01-04T03:35:00.351Z,99.90
2019-01-04T03:37:28.266Z,99.90
2019-01-04T03:39:56.154Z,99.90
2019-01-04T03:42:24.138Z,99.90
2019-01-04T03:44:52.028Z,99.90
2019-01-04T03:47:19.943Z,99.90
2019-01-04T03:49:47.832Z,99.90
2019-01-04T03:52:15.801Z,99.90
2019-01-04T03:54:43.690Z,99.90
2019-01-04T03:57:11.565Z,99.90
2019-01-04T03:59:39.467Z,99.90
2019-01-04T04:02:07.338Z,99.90
2019-01-04T04:04:35.256Z,99.90
2019-01-04T04:07:03.136Z,99.90
2019-01-04T04:09:31.033Z,99.90
2019-01-04T04:11:58.901Z,99.90
2019-01-04T04:14:26.805Z,99.90
2019-01-04T04:16:54.680Z,99.90
2019-01-04T04:19:22.585Z,99.90
2019-01-04T04:21:50.466Z,99.90
2019-01-04T04:24:18.360Z,99.90
2019-01-04T04:26:46.253Z,99.80
2019-01-04T04:29:14.153Z,99.80
2019-01-04T04:31:42.109Z,99.80
2019-01-04T04:34:10.009Z,99.80
2019-01-04T04:36:37.923Z,99.80
2019-01-04T04:39:06.646Z,99.80
2019-01-04T04:41:34.573Z,99.80
2019-01-04T04:44:02.581Z,99.80
2019-01-04T04:46:30.497Z,99.90
2019-01-04T04:48:58.529Z,99.80
2019-01-04T04:51:26.436Z,99.90
2019-01-04T04:53:54.475Z,99.90
2019-01-04T04:56:22.365Z,99.80
2019-01-04T04:58:50.277Z,99.80
2019-01-04T05:01:18.261Z,99.70
2019-01-04T05:03:46.164Z,99.70
2019-01-04T05:06:14.057Z,99.90
2019-01-04T05:08:41.954Z,99.60
2019-01-04T05:11:10.099Z,99.60
2019-01-04T05:13:37.969Z,99.60
2019-01-04T05:16:05.929Z,99.60
2019-01-04T05:18:33.799Z,99.60
2019-01-04T05:21:01.921Z,99.60
2019-01-04T05:23:29.804Z,99.60
2019-01-04T05:25:57.753Z,99.60
2019-01-04T05:28:25.853Z,99.60
2019-01-04T05:30:53.733Z,99.60
2019-01-04T05:33:21.654Z,99.60
2019-01-04T05:35:49.838Z,99.60
2019-01-04T05:38:17.794Z,99.60
2019-01-04T05:40:45.682Z,99.60
2019-01-04T05:43:13.637Z,99.60
2019-01-04T05:45:41.622Z,99.60
2019-01-04T05:48:10.169Z,99.70
2019-01-04T05:50:38.156Z,99.70
2019-01-04T05:53:06.121Z,99.60
2019-01-04T05:55:34.069Z,99.50
2019-01-04T05:58:02.051Z,99.50
2019-01-04T06:00:29.925Z,99.50
2019-01-04T06:02:58.091Z,99.40
2019-01-04T06:05:26.230Z,99.50
2019-01-04T06:07:54.133Z,99.50
2019-01-04T06:10:22.017Z,99.60
2019-01-04T06:12:49.904Z,99.70
2019-01-04T06:15:17.789Z,99.50
2019-01-04T06:17:45.693Z,99.40
2019-01-04T06:20:13.637Z,99.40
2019-01-04T06:22:41.541Z,99.40
2019-01-04T06:25:09.540Z,99.40
2019-01-04T06:27:37.755Z,99.50
2019-01-04T06:30:05.716Z,99.50
2019-01-04T06:32:33.588Z,99.50
2019-01-04T06:35:01.767Z,99.50
2019-01-04T06:37:29.666Z,99.50
2019-01-04T06:39:57.541Z,99.50
2019-01-04T06:42:25.431Z,99.50
2019-01-04T06:44:53.309Z,99.50
2019-01-04T06:47:21.757Z,99.40
2019-01-04T06:49:50.357Z,99.40
2019-01-04T06:52:18.800Z,99.40
2019-01-04T06:55:04.920Z,99.30
2019-01-04T06:57:32.826Z,99.30
2019-01-04T07:00:00.692Z,99.40
2019-01-04T07:02:28.596Z,99.50
2019-01-04T07:04:56.486Z,99.70
2019-01-04T07:07:24.442Z,99.60
2019-01-04T07:09:52.322Z,99.40
2019-01-04T07:12:21.560Z,99.20
2019-01-04T07:14:49.427Z,99.00
2019-01-04T07:17:17.293Z,98.70
2019-01-04T07:19:45.319Z,98.60
2019-01-04T07:22:13.205Z,98.50
2019-01-04T07:24:41.354Z,98.40
2019-01-04T07:27:09.375Z,98.30
2019-01-04T07:29:37.259Z,98.20
2019-01-04T07:32:05.231Z,98.20
2019-01-04T07:34:33.108Z,98.20
2019-01-04T07:37:01.103Z,98.30
2019-01-04T07:39:28.979Z,98.40
2019-01-04T07:41:56.881Z,98.60
2019-01-04T07:44:24.761Z,98.80
2019-01-04T07:46:52.936Z,98.90
2019-01-04T07:49:20.821Z,99.10
2019-01-04T07:51:48.709Z,99.20
2019-01-04T07:54:16.909Z,99.20
2019-01-04T07:56:44.836Z,99.30
2019-01-04T07:59:12.789Z,99.50
2019-01-04T08:01:40.733Z,99.70
2019-01-04T08:04:08.626Z,99.90
2019-01-04T08:06:36.684Z,99.90
2019-01-04T08:09:06.088Z,99.90
2019-01-04T08:11:34.062Z,99.90
2019-01-04T08:14:02.120Z,99.80
2019-01-04T08:16:30.065Z,99.70
2019-01-04T08:18:57.964Z,99.50
2019-01-04T08:21:31.993Z,99.40
2019-01-04T08:23:59.960Z,99.20
2019-01-04T08:26:28.304Z,99.10
2019-01-04T08:28:56.293Z,99.20
2019-01-04T08:31:24.248Z,99.30
2019-01-04T08:33:52.257Z,99.30
2019-01-04T08:36:20.185Z,99.30
2019-01-04T08:38:48.068Z,99.30
2019-01-04T08:41:15.976Z,99.20
2019-01-04T08:43:44.442Z,99.10
2019-01-04T08:46:12.347Z,99.00
2019-01-04T08:48:40.259Z,98.70
2019-01-04T08:51:08.146Z,98.50
2019-01-04T08:53:55.081Z,98.40
2019-01-04T08:56:23.021Z,98.30
2019-01-04T08:58:50.966Z,98.30
2019-01-04T09:01:18.975Z,98.00
2019-01-04T09:03:46.966Z,97.70
2019-01-04T09:06:14.931Z,97.50
2019-01-04T09:08:42.825Z,97.20
2019-01-04T09:11:10.760Z,97.00
2019-01-04T09:13:38.632Z,96.70
2019-01-04T09:16:06.516Z,96.10
2019-01-04T09:18:34.404Z,96.10
2019-01-04T09:21:02.613Z,95.80
2019-01-04T09:23:30.576Z,95.30
2019-01-04T09:25:58.557Z,95.20
2019-01-04T09:28:26.437Z,95.10
2019-01-04T09:30:54.480Z,94.70
2019-01-04T09:33:22.727Z,94.50
2019-01-04T09:35:50.633Z,94.10
2019-01-04T09:38:18.634Z,93.20
2019-01-04T09:40:46.546Z,93.40
2019-01-04T09:43:14.526Z,93.20
2019-01-04T09:45:42.481Z,92.60
2019-01-04T09:48:10.573Z,92.40
2019-01-04T09:50:38.550Z,92.50
2019-01-04T09:53:07.857Z,92.20
2019-01-04T09:55:35.768Z,92.30
2019-01-04T09:58:03.664Z,91.80
2019-01-04T10:00:31.640Z,92.20
2019-01-04T10:02:59.918Z,92.00
2019-01-04T10:05:33.384Z,92.20
2019-01-04T10:08:01.271Z,92.00
2019-01-04T10:10:29.192Z,91.80
2019-01-04T10:12:57.099Z,91.60
2019-01-04T10:15:25.066Z,90.80
2019-01-04T10:17:52.955Z,90.50
2019-01-04T10:20:20.861Z,90.10
2019-01-04T10:22:48.789Z,89.10
2019-01-04T10:25:16.765Z,88.10
2019-01-04T10:27:44.718Z,87.40
2019-01-04T10:30:26.000Z,87.30
2019-01-04T10:32:53.932Z,87.00
2019-01-04T10:35:21.828Z,87.10
2019-01-04T10:37:49.713Z,87.00
2019-01-04T10:40:17.588Z,85.70
2019-01-04T10:42:45.464Z,86.70
2019-01-04T10:45:13.357Z,86.80
2019-01-04T10:47:44.969Z,86.60
2019-01-04T10:50:12.940Z,86.90
2019-01-04T10:52:40.848Z,87.20
2019-01-04T10:55:08.852Z,87.10
2019-01-04T10:57:36.726Z,86.40
2019-01-04T11:00:05.453Z,86.50
2019-01-04T11:02:33.343Z,86.40
2019-01-04T11:05:01.333Z,86.00
2019-01-04T11:07:29.249Z,85.30
2019-01-04T11:09:57.144Z,85.20
2019-01-04T11:12:25.190Z,84.80
2019-01-04T11:14:53.181Z,84.60
2019-01-04T11:17:21.132Z,84.20
2019-01-04T11:19:49.103Z,84.60
2019-01-04T11:22:35.173Z,84.60
2019-01-04T11:25:34.705Z,84.30
2019-01-04T11:28:23.412Z,85.30
2019-01-04T11:30:59.323Z,85.10
2019-01-04T11:33:36.942Z,85.30
2019-01-04T11:36:36.400Z,84.90
2019-01-04T11:39:10.008Z,85.80
2019-01-04T11:42:06.132Z,84.70
2019-01-04T11:44:52.525Z,85.10
2019-01-04T11:47:39.588Z,84.40
2019-01-04T11:50:25.841Z,85.30
2019-01-04T11:52:56.073Z,85.00
2019-01-04T11:55:23.958Z,84.20
2019-01-04T11:57:51.856Z,83.60
2019-01-04T12:00:20.150Z,82.80
2019-01-04T12:02:48.136Z,82.50
2019-01-04T12:05:16.289Z,82.80
2019-01-04T12:07:44.173Z,82.80
2019-01-04T12:10:12.077Z,82.60
2019-01-04T12:12:39.971Z,82.20
2019-01-04T12:15:08.028Z,80.90
2019-01-04T12:17:36.218Z,81.00
2019-01-04T12:20:04.252Z,80.70
2019-01-04T12:22:32.420Z,80.40
2019-01-04T12:25:00.358Z,79.50
2019-01-04T12:27:28.275Z,79.00
2019-01-04T12:29:56.173Z,78.90
2019-01-04T12:32:24.210Z,79.20
2019-01-04T12:34:52.092Z,79.30
2019-01-04T12:37:20.088Z,79.20
2019-01-04T12:39:48.110Z,78.00
2019-01-04T12:42:16.188Z,77.70
2019-01-04T12:44:44.222Z,78.10
2019-01-04T12:47:12.224Z,77.90
2019-01-04T12:49:40.245Z,78.40
2019-01-04T12:52:08.140Z,79.10
2019-01-04T12:54:36.033Z,78.90
2019-01-04T12:57:04.269Z,79.20
2019-01-04T12:59:32.229Z,79.30
2019-01-04T13:02:00.371Z,79.30
2019-01-04T13:04:28.390Z,80.10
2019-01-04T13:06:56.705Z,80.60
2019-01-04T13:09:24.625Z,80.70
2019-01-04T13:11:52.814Z,80.90
2019-01-04T13:14:20.996Z,80.70
2019-01-04T13:16:48.923Z,80.50
2019-01-04T13:19:17.008Z,81.30
2019-01-04T13:21:45.486Z,81.50
2019-01-04T13:24:13.473Z,81.80
2019-01-04T13:26:41.471Z,81.80
2019-01-04T13:29:09.380Z,81.50
2019-01-04T13:31:37.316Z,81.10
2019-01-04T13:34:05.265Z,81.00
2019-01-04T13:36:33.148Z,80.60
2019-01-04T13:39:01.528Z,81.10
2019-01-04T13:41:29.468Z,81.20
2019-01-04T13:43:57.417Z,81.80
2019-01-04T13:46:25.430Z,82.10
2019-01-04T13:48:53.317Z,82.10
2019-01-04T13:51:21.221Z,82.50
2019-01-04T13:53:49.161Z,83.20
2019-01-04T13:56:25.705Z,83.90
2019-01-04T13:58:53.597Z,84.40
2019-01-04T14:01:21.605Z,84.20
2019-01-04T14:03:49.517Z,84.00
2019-01-04T14:06:17.487Z,84.40
2019-01-04T14:08:45.406Z,84.40
2019-01-04T14:11:13.333Z,84.70
2019-01-04T14:13:41.306Z,86.00
2019-01-04T14:16:09.349Z,86.00
2019-01-04T14:18:37.320Z,86.20
2019-01-04T14:21:05.373Z,86.00
2019-01-04T14:23:33.294Z,85.70
2019-01-04T14:26:01.170Z,86.10
2019-01-04T14:28:29.256Z,85.70
2019-01-04T14:30:57.233Z,85.20
2019-01-04T14:33:25.865Z,85.30
2019-01-04T14:35:53.947Z,85.00
2019-01-04T14:38:21.842Z,84.80
2019-01-04T14:40:50.174Z,84.70
2019-01-04T14:43:18.083Z,84.70
2019-01-04T14:45:45.977Z,84.90
2019-01-04T14:48:13.892Z,84.90
2019-01-04T14:50:41.828Z,85.50
2019-01-04T14:53:11.039Z,85.50
2019-01-04T14:55:39.530Z,85.80
2019-01-04T14:58:07.585Z,86.00
2019-01-04T15:00:35.552Z,86.50
2019-01-04T15:03:03.492Z,87.20
2019-01-04T15:05:31.384Z,87.70
2019-01-04T15:07:59.326Z,87.60
2019-01-04T15:10:27.213Z,88.30
2019-01-04T15:12:55.135Z,88.70
2019-01-04T15:15:23.112Z,88.90
2019-01-04T15:17:51.050Z,89.30
2019-01-04T15:20:18.955Z,90.00
2019-01-04T15:22:46.856Z,90.20
2019-01-04T15:25:14.916Z,90.50
2019-01-04T15:27:42.805Z,91.10
2019-01-04T15:30:11.287Z,91.20
2019-01-04T15:32:39.164Z,91.20
2019-01-04T15:35:07.321Z,91.00
2019-01-04T15:37:35.472Z,91.30
2019-01-04T15:40:03.529Z,91.60
2019-01-04T15:42:31.625Z,91.50
2019-01-04T15:44:59.500Z,91.50
2019-01-04T15:47:28.865Z,91.80
2019-01-04T15:49:57.120Z,92.30
2019-01-04T15:52:26.220Z,92.20
2019-01-04T15:54:54.597Z,91.90
2019-01-04T15:57:22.481Z,92.10
2019-01-04T15:59:50.690Z,92.30
2019-01-04T16:02:18.873Z,92.50
2019-01-04T16:04:47.132Z,93.00
2019-01-04T16:07:15.125Z,93.20
2019-01-04T16:09:43.090Z,93.10
2019-01-04T16:12:11.128Z,93.20
2019-01-04T16:14:39.099Z,93.10
2019-01-04T16:17:12.086Z,93.00
2019-01-04T16:19:37.052Z,93.10
2019-01-04T16:22:05.008Z,93.00
2019-01-04T16:24:33.298Z,92.90
2019-01-04T16:27:01.720Z,92.60
2019-01-04T16:29:29.629Z,92.60
2019-01-04T16:31:57.542Z,92.70
2019-01-04T16:34:25.440Z,92.60
2019-01-04T16:36:53.320Z,92.50
2019-01-04T16:39:21.289Z,92.70
2019-01-04T16:41:49.376Z,92.70
2019-01-04T16:44:17.315Z,92.80
2019-01-04T16:46:45.193Z,92.90
2019-01-04T16:49:13.431Z,93.00
2019-01-04T16:51:45.338Z,93.10
2019-01-04T17:03:52.912Z,93.80
2019-01-04T17:05:31.538Z,93.50
2019-01-04T17:06:20.893Z,94.10
2019-01-04T17:08:48.813Z,94.30
2019-01-04T17:11:19.365Z,94.60
2019-01-04T17:13:47.642Z,94.70
2019-01-04T17:16:15.558Z,94.80
2019-01-04T17:18:43.836Z,95.10
2019-01-04T17:21:11.873Z,94.90
2019-01-04T17:23:39.769Z,94.90
2019-01-04T17:26:07.693Z,94.80
2019-01-04T17:28:35.828Z,94.90
2019-01-04T17:31:03.830Z,95.00
2019-01-04T17:33:31.820Z,95.20
2019-01-04T17:36:00.007Z,95.00
2019-01-04T17:38:27.965Z,94.70
2019-01-04T17:40:55.930Z,94.70
2019-01-04T17:43:24.285Z,94.70
2019-01-04T17:45:52.185Z,94.70
2019-01-04T17:48:20.249Z,94.70
2019-01-04T17:50:48.216Z,94.70
2019-01-04T17:53:16.108Z,94.70
2019-01-04T17:55:44.064Z,94.60
2019-01-04T17:58:12.302Z,94.50
2019-01-04T18:00:40.279Z,94.40
2019-01-04T18:03:08.160Z,93.90
2019-01-04T18:05:36.065Z,93.70
2019-01-04T18:08:03.933Z,93.70
2019-01-04T18:10:31.871Z,93.70
2019-01-04T18:12:59.752Z,93.80
2019-01-04T18:15:27.733Z,93.20
2019-01-04T18:17:58.729Z,92.70
2019-01-04T18:20:25.580Z,92.30
2019-01-04T18:22:53.460Z,91.80
2019-01-04T18:25:21.514Z,91.20
2019-01-04T18:27:50.338Z,91.30
2019-01-04T18:30:20.498Z,91.60
2019-01-04T18:32:48.425Z,91.00
2019-01-04T18:35:16.339Z,90.50
2019-01-04T18:37:44.237Z,90.10
2019-01-04T18:40:12.192Z,89.80
2019-01-04T18:42:40.103Z,89.80
2019-01-04T18:45:08.063Z,90.00
2019-01-04T18:47:39.340Z,90.10
2019-01-04T18:50:06.740Z,89.90
2019-01-04T18:52:36.210Z,90.00
2019-01-04T18:55:04.266Z,90.20
2019-01-04T18:57:32.283Z,90.20
2019-01-04T19:00:00.177Z,90.20
2019-01-04T19:02:33.429Z,90.40
2019-01-04T19:05:01.310Z,90.50
2019-01-04T19:07:29.603Z,90.60
2019-01-04T19:09:57.497Z,90.40
2019-01-04T19:12:25.492Z,90.20
2019-01-04T19:14:54.054Z,90.20
2019-01-04T19:17:22.054Z,90.20
2019-01-04T19:19:50.018Z,90.10
2019-01-04T19:22:18.053Z,90.10
2019-01-04T19:24:45.953Z,90.30
2019-01-04T19:27:13.880Z,90.40
2019-01-04T19:29:41.869Z,90.40
2019-01-04T19:32:09.959Z,90.40
2019-01-04T19:34:37.871Z,90.60
2019-01-04T19:37:05.875Z,90.80
2019-01-04T19:39:34.004Z,90.70
2019-01-04T19:42:02.092Z,90.70
2019-01-04T19:44:30.141Z,90.70
2019-01-04T19:46:58.191Z,90.70
2019-01-04T19:49:26.279Z,90.70
2019-01-04T19:51:54.545Z,90.80
2019-01-04T19:54:23.720Z,90.90
2019-01-04T19:56:52.058Z,91.10
2019-01-04T19:59:20.002Z,91.00
2019-01-04T20:01:48.922Z,91.10
2019-01-04T20:04:16.836Z,91.00
2019-01-04T20:07:34.201Z,91.20
2019-01-04T20:10:39.064Z,91.50
2019-01-04T20:13:44.233Z,91.50
2019-01-04T20:17:00.013Z,91.50
2019-01-04T20:19:47.565Z,91.60
2019-01-04T20:22:33.479Z,91.80
2019-01-04T20:25:24.014Z,91.80
2019-01-04T20:28:23.280Z,91.90
2019-01-04T20:31:21.852Z,92.10
2019-01-04T20:34:18.173Z,91.90
2019-01-04T20:37:17.426Z,92.00
2019-01-04T20:40:05.695Z,91.90
2019-01-04T20:42:52.872Z,91.70
2019-01-04T20:45:37.980Z,91.50
2019-01-04T20:48:24.061Z,91.50
2019-01-04T20:51:29.775Z,91.30
2019-01-04T20:54:19.749Z,91.30
2019-01-04T20:57:05.601Z,91.30
2019-01-04T20:59:58.545Z,91.10
2019-01-04T21:02:43.197Z,90.90
2019-01-04T21:05:35.952Z,90.70
2019-01-04T21:08:21.984Z,90.80
2019-01-04T21:11:09.012Z,90.70
2019-01-04T21:13:54.873Z,90.70
2019-01-04T21:16:40.948Z,90.80
2019-01-04T21:19:46.373Z,90.60
2019-01-04T21:22:39.356Z,90.80
2019-01-04T21:25:29.513Z,90.80
2019-01-04T21:28:19.339Z,90.80
2019-01-04T21:31:06.421Z,91.00
2019-01-04T21:33:59.956Z,91.00
2019-01-04T21:36:45.933Z,91.20
2019-01-04T21:39:34.157Z,91.50
2019-01-04T21:42:17.226Z,91.70
2019-01-04T21:45:03.165Z,91.90
2019-01-04T21:48:05.784Z,91.90
2019-01-04T21:50:52.875Z,92.10
2019-01-04T21:53:41.242Z,92.30
2019-01-04T21:56:27.317Z,92.60
2019-01-04T21:59:17.486Z,92.80
2019-01-04T22:02:06.879Z,93.10
2019-01-04T22:05:03.037Z,93.10
2019-01-04T22:07:56.223Z,93.20
2019-01-04T22:10:41.943Z,93.50
2019-01-04T22:13:18.904Z,93.70
2019-01-04T22:16:04.791Z,93.60
2019-01-04T22:18:52.671Z,93.80
2019-01-04T22:21:38.605Z,94.00
2019-01-04T22:24:19.318Z,94.00
2019-01-04T22:27:21.710Z,94.00
2019-01-04T22:30:08.882Z,94.00
2019-01-04T22:33:11.086Z,94.10
2019-01-04T22:35:57.470Z,94.30
2019-01-04T22:38:57.685Z,94.30
2019-01-04T22:41:56.889Z,94.30
2019-01-04T22:44:36.866Z,94.10
2019-01-04T22:47:28.297Z,94.00
2019-01-04T22:50:30.909Z,94.00
2019-01-04T22:53:33.448Z,93.90
2019-01-04T22:56:19.261Z,93.90
2019-01-04T22:59:05.275Z,94.00
2019-01-04T23:02:07.849Z,94.10
2019-01-04T23:05:08.406Z,94.00
2019-01-04T23:08:07.567Z,94.00
2019-01-04T23:11:00.526Z,93.90
2019-01-04T23:13:47.581Z,93.80
2019-01-04T23:16:28.338Z,93.80
2019-01-04T23:19:30.859Z,93.80
2019-01-04T23:22:34.091Z,93.70
2019-01-04T23:25:25.825Z,93.70
2019-01-04T23:28:25.988Z,93.40
2019-01-04T23:31:14.267Z,93.30
2019-01-04T23:33:59.326Z,93.30
2019-01-04T23:36:49.492Z,93.50
2019-01-04T23:39:42.484Z,93.30
2019-01-04T23:42:41.765Z,93.20
2019-01-04T23:45:27.861Z,93.40
2019-01-04T23:48:07.603Z,93.60
2019-01-04T23:50:53.422Z,93.80
2019-01-04T23:53:39.406Z,93.90
2019-01-04T23:56:17.716Z,94.10
2019-01-04T23:59:10.819Z,94.20
